Flight Track Log - Related Links

Times and Time Zones

All times are in EDT time to prevent confusion due to time zone crossing. See the UAL1051 flight status page for this flight to view local times or setup timezone preferences in your user account.

Time Position Orientation Groundspeed Altitude Reporting Facility
EDT Latitude Longitude Course Direction KTS MPH feet Rate Location/Type
Tue 04:04:04 PM 29.9528 -95.3375 218° Southwest 167 192 1,000  Level Houston Center
Tue 04:05:11 PM 29.9114 -95.3744 218° Southwest 233 268 2,800 1,837 Climbing Houston Center
Tue 04:05:42 PM 29.8925 -95.4144 241° Southwest 254 292 4,000 2,032 Climbing Houston Center
Tue 04:06:13 PM 29.8833 -95.4442 250° West 238 274 4,900 2,557 Climbing Houston Center
Tue 04:06:43 PM 29.8728 -95.4964 257° West 264 304 6,600 2,710 Climbing Houston Center
Tue 04:07:15 PM 29.8675 -95.5281 259° West 264 304 7,700 2,776 Climbing Houston Center
Tue 04:07:50 PM 29.8653 -95.5986 268° West 277 319 9,700 2,710 Climbing Houston Center
Tue 04:08:17 PM 29.8631 -95.6342 266° West 275 316 10,500 1,279 Climbing Houston Center
Tue 04:08:51 PM 29.8592 -95.6956 266° West 330 380 11,000 1,258 Climbing Houston Center
Tue 04:09:19 PM 29.8589 -95.7378 270° West 318 366 11,800 1,933 Climbing Houston Center
Tue 04:10:21 PM 29.8978 -95.8381 294° West 354 407 13,900 1,968 Climbing Houston Center
Tue 04:11:24 PM 29.9672 -95.9267 312° West 370 426 15,900 1,008 Climbing Houston Center
Tue 04:12:26 PM 30.0281 -96.0228 306° West 375 432 16,000 1,161 Climbing Houston Center
Tue 04:13:28 PM 30.0636 -96.1614 287° West 378 435 18,300 1,887 Climbing Houston Center
Tue 04:14:30 PM 30.0672 -96.2833 272° West 382 440 19,900 1,548 Climbing Houston Center
Tue 04:15:32 PM 30.0694 -96.4100 271° West 394 453 21,500 1,403 Climbing Houston Center
Tue 04:16:34 PM 30.0964 -96.5375 284° West 407 468 22,800 1,968 Climbing Houston Center
Tue 04:17:37 PM 30.1244 -96.6861 282° West 409 471 25,600 2,016 Climbing Houston Center
Tue 04:18:39 PM 30.1506 -96.8086 284° West 397 457 27,000 1,065 Climbing Houston Center
Tue 04:19:41 PM 30.1758 -96.9367 283° West 407 468 27,800 677 Climbing Houston Center
Tue 04:20:43 PM 30.2033 -97.0719 283° West 426 490 28,400 581 Climbing Houston Center
Tue 04:21:45 PM 30.2308 -97.2150 283° West 449 517 29,000 629 Climbing Houston Center
Tue 04:22:47 PM 30.2606 -97.3631 283° West 464 534 29,700 968 Climbing Houston Center
Tue 04:23:49 PM 30.2953 -97.5444 283° West 473 544 31,000 624 Climbing Houston Center
Tue 04:24:52 PM 30.3250 -97.6928 283° West 473 544 31,000 432 Level Houston Center
Tue 04:25:54 PM 30.3525 -97.8406 282° West 472 543 31,900 968 Climbing Houston Center
Tue 04:26:56 PM 30.3811 -97.9864 283° West 467 537 33,000 1,016 Climbing Houston Center
Tue 04:27:58 PM 30.4089 -98.1294 283° West 459 528 34,000 484 Climbing Houston Center
Tue 04:29:00 PM 30.4394 -98.2756 284° West 461 531 34,000  Level Houston Center
Tue 04:30:02 PM 30.4694 -98.4222 283° West 465 535 34,000  Level Houston Center
Tue 04:31:05 PM 30.5078 -98.6031 284° West 477 549 34,000  Level Houston Center
Tue 04:32:07 PM 30.5381 -98.7544 283° West 480 552 34,000  Level Houston Center
Tue 04:33:09 PM 30.5678 -98.9050 283° West 480 552 34,000  Level Houston Center
Tue 04:34:11 PM 30.5983 -99.0544 283° West 478 550 34,000  Level Houston Center
Tue 04:35:13 PM 30.6325 -99.2258 283° West 470 541 34,000  Level Houston Center
Tue 04:36:15 PM 30.6622 -99.3731 283° West 470 541 34,000  Level Houston Center
Tue 04:37:17 PM 30.6900 -99.5197 282° West 469 540 34,000  Level Houston Center
Tue 04:38:20 PM 30.7178 -99.6644 283° West 466 536 34,000  Level Houston Center
Tue 04:39:22 PM 30.7467 -99.8097 283° West 465 535 34,000  Level Houston Center
Tue 04:40:24 PM 30.7797 -99.9853 282° West 466 536 34,000  Level Houston Center
Tue 04:41:26 PM 30.8083 -100.1314 283° West 466 536 34,000 -48 Level Houston Center
Tue 04:42:28 PM 30.8353 -100.2761 282° West 465 535 33,900  Descending Houston Center
Tue 04:43:30 PM 30.8619 -100.4222 282° West 465 535 34,000 48 Climbing Houston Center
Tue 04:44:33 PM 30.8894 -100.5683 282° West 465 535 34,000 -48 Level Houston Center
Tue 04:45:35 PM 30.9225 -100.7436 282° West 465 535 33,900 -48 Descending Houston Center
Tue 04:46:37 PM 30.9489 -100.8892 282° West 465 535 33,900 48 Level Houston Center
Tue 04:47:39 PM 30.9750 -101.0364 282° West 465 535 34,000 48 Climbing Houston Center
Tue 04:48:41 PM 31.0017 -101.1822 282° West 464 534 34,000  Level Houston Center
Tue 04:49:43 PM 31.0283 -101.3311 282° West 463 533 34,000  Level Houston Center
Tue 04:50:46 PM 31.0556 -101.4781 282° West 463 533 34,000  Level Houston Center
Tue 04:51:48 PM 31.0861 -101.6550 281° West 463 533 34,000  Level Houston Center
Tue 04:52:50 PM 31.1119 -101.8008 282° West 463 533 34,000 -48 Level Houston Center
Tue 04:53:52 PM 31.1383 -101.9492 282° West 463 533 33,900  Descending Houston Center
Tue 04:54:54 PM 31.1633 -102.0964 281° West 463 533 34,000 48 Climbing Houston Center
Tue 04:55:56 PM 31.1878 -102.2467 281° West 463 533 34,000 -48 Level Houston Center
Tue 04:56:59 PM 31.2125 -102.4069 280° West 479 551 33,900  Descending Houston Center
Tue 04:58:01 PM 31.2403 -102.5536 283° West 465 535 34,000 48 Climbing Houston Center
Tue 04:59:03 PM 31.2650 -102.7008 281° West 464 534 34,000  Level Houston Center
Tue 05:00:05 PM 31.2944 -102.8786 281° West 464 534 34,000  Level Houston Center
Tue 05:01:07 PM 31.3181 -103.0267 281° West 464 534 34,000 -48 Level Houston Center
Tue 05:02:09 PM 31.3433 -103.1747 281° West 464 534 33,900  Descending Houston Center
Tue 05:03:12 PM 31.3658 -103.3225 280° West 464 534 34,000 44 Climbing Houston Center
Tue 05:04:25 PM 31.3964 -103.5025 281° West 464 534 34,000  Level Albuquerque Center
Tue 05:05:26 PM 31.4200 -103.6514 281° West 465 535 34,000  Level Albuquerque Center
Tue 05:06:28 PM 31.4467 -103.8058 281° West 465 535 34,000  Level Albuquerque Center
Tue 05:07:30 PM 31.4700 -103.9542 280° West 465 535 34,000 -48 Level Albuquerque Center
Tue 05:08:32 PM 31.4933 -104.1017 281° West 465 535 33,900 -49 Descending Albuquerque Center
Tue 05:09:33 PM 31.5208 -104.2789 280° West 465 535 33,900 49 Level Albuquerque Center
Tue 05:10:35 PM 31.5436 -104.4269 280° West 465 535 34,000 48 Climbing Albuquerque Center
Tue 05:11:37 PM 31.5669 -104.5728 281° West 464 534 34,000  Level Albuquerque Center
Tue 05:12:38 PM 31.5889 -104.7203 280° West 463 533 34,000  Level Albuquerque Center
Tue 05:13:40 PM 31.6117 -104.8672 280° West 463 533 34,000  Level Albuquerque Center
Tue 05:14:42 PM 31.6339 -105.0167 280° West 463 533 34,000 -48 Level Albuquerque Center
Tue 05:15:44 PM 31.6600 -105.1950 280° West 464 534 33,900  Descending Albuquerque Center
Tue 05:16:45 PM 31.6819 -105.3408 280° West 463 533 34,000 49 Climbing Albuquerque Center
Tue 05:17:47 PM 31.7028 -105.4894 279° West 463 533 34,000  Level Albuquerque Center
Tue 05:18:49 PM 31.7242 -105.6381 280° West 463 533 34,000  Level Albuquerque Center
Tue 05:19:50 PM 31.7458 -105.7872 280° West 464 534 34,000 -49 Level Albuquerque Center
Tue 05:20:52 PM 31.7675 -105.9369 280° West 465 535 33,900  Descending Albuquerque Center
Tue 05:21:54 PM 31.7933 -106.1158 280° West 465 535 34,000 48 Climbing Albuquerque Center
Tue 05:22:56 PM 31.8147 -106.2631 280° West 463 533 34,000 -49 Level Albuquerque Center
Tue 05:23:57 PM 31.8286 -106.4186 276° West 472 543 33,900  Descending Albuquerque Center
Tue 05:24:59 PM 31.8569 -106.5733 282° West 471 542 34,000  Climbing Albuquerque Center
Tue 05:26:01 PM 31.8633 -106.7236 273° West 464 534 33,900  Descending Albuquerque Center
Tue 05:27:03 PM 31.8911 -106.8722 282° West 465 535 34,000  Climbing Albuquerque Center
Tue 05:28:04 PM 31.9331 -107.0161 289° West 465 535 33,900 -49 Descending Albuquerque Center
Tue 05:29:06 PM 31.9739 -107.1611 288° West 465 535 33,900 48 Level Albuquerque Center
Tue 05:30:08 PM 32.0156 -107.3050 289° West 465 535 34,000 48 Climbing Albuquerque Center
Tue 05:31:10 PM 32.0656 -107.4789 289° West 465 535 34,000  Level Albuquerque Center
Tue 05:32:12 PM 32.1081 -107.6236 289° West 464 534 34,000 -49 Level Albuquerque Center
Tue 05:33:13 PM 32.1494 -107.7689 289° West 464 534 33,900  Descending Albuquerque Center
Tue 05:34:15 PM 32.2122 -107.9028 299° West 464 534 34,000  Climbing Albuquerque Center
Tue 05:35:17 PM 32.2794 -108.0347 301° West 464 534 33,900  Descending Albuquerque Center
Tue 05:36:19 PM 32.3469 -108.1664 301° West 464 534 34,000 49 Climbing Albuquerque Center
Tue 05:37:20 PM 32.4169 -108.2947 303° West 464 534 34,000  Level Albuquerque Center
Tue 05:38:22 PM 32.4817 -108.4297 300° West 465 535 34,000  Level Albuquerque Center
Tue 05:39:24 PM 32.5431 -108.6000 293° West 465 535 34,000  Level Albuquerque Center
Tue 05:40:26 PM 32.6022 -108.7383 297° West 466 536 34,000  Level Albuquerque Center
Tue 05:41:27 PM 32.6608 -108.8764 297° West 466 536 34,000 146 Level Albuquerque Center
Tue 05:42:29 PM 32.7153 -109.0156 295° West 467 537 34,300 774 Climbing Albuquerque Center
Tue 05:43:31 PM 32.7667 -109.1561 294° West 453 521 35,600 823 Climbing Albuquerque Center
Tue 05:44:33 PM 32.8222 -109.2922 296° West 451 519 36,000 194 Climbing Albuquerque Center
Tue 05:45:35 PM 32.8756 -109.4297 295° West 451 519 36,000  Level Albuquerque Center
Tue 05:46:37 PM 32.9297 -109.5656 295° West 453 521 36,000  Level Albuquerque Center
Tue 05:47:39 PM 32.9822 -109.6989 295° West 449 517 36,000  Level Albuquerque Center
Tue 05:48:40 PM 33.0461 -109.8589 296° West 448 516 36,000  Level Albuquerque Center
Tue 05:49:42 PM 33.0994 -109.9919 296° West 447 514 36,000  Level Albuquerque Center
Tue 05:50:44 PM 33.1511 -110.1256 295° West 447 514 36,000  Level Albuquerque Center
Tue 05:51:46 PM 33.2094 -110.2572 298° West 447 514 36,000  Level Albuquerque Center
Tue 05:52:48 PM 33.2894 -110.3753 309° West 451 519 36,000  Level Albuquerque Center
Tue 05:53:50 PM 33.3747 -110.4919 311° West 460 529 36,000  Level Albuquerque Center
Tue 05:54:52 PM 33.4431 -110.6194 303° West 459 528 36,000  Level Albuquerque Center
Tue 05:55:53 PM 33.4750 -110.7906 283° West 452 520 36,000  Level Albuquerque Center
Tue 05:56:55 PM 33.4758 -110.9389 270° West 443 510 36,000  Level Albuquerque Center
Tue 05:57:57 PM 33.4769 -111.0856 271° West 442 509 36,000  Level Albuquerque Center
Tue 05:58:59 PM 33.4747 -111.2344 269° West 443 510 36,000  Level Albuquerque Center
Tue 06:00:01 PM 33.4733 -111.3844 269° West 446 513 36,000  Level Albuquerque Center
Tue 06:01:03 PM 33.4722 -111.5333 270° West 447 514 36,000  Level Albuquerque Center
Tue 06:02:04 PM 33.4697 -111.7136 269° West 448 516 36,000  Level Albuquerque Center
Tue 06:03:06 PM 33.4678 -111.8644 269° West 448 516 36,000  Level Albuquerque Center
Tue 06:04:08 PM 33.4658 -112.0136 269° West 448 516 36,000  Level Albuquerque Center
Tue 06:05:10 PM 33.4639 -112.1633 269° West 448 516 36,000  Level Albuquerque Center
Tue 06:06:12 PM 33.4619 -112.3128 269° West 448 516 36,000  Level Albuquerque Center
Tue 06:07:13 PM 33.4594 -112.4606 269° West 447 514 36,000  Level Albuquerque Center
Tue 06:08:15 PM 33.4575 -112.6256 269° West 444 511 36,000  Level Albuquerque Center
Tue 06:10:15 PM 33.4836 -112.9131 276° West 451 519 36,000  Level Los Angeles Center
Tue 06:11:21 PM 33.5347 -113.0514 294° West 452 520 36,000  Level Albuquerque Center
Tue 06:12:23 PM 33.5850 -113.1897 294° West 452 520 36,000  Level Albuquerque Center
Tue 06:13:24 PM 33.6389 -113.3419 293° West 452 520 36,000  Level Albuquerque Center
Tue 06:14:26 PM 33.6867 -113.4808 292° West 452 520 36,000  Level Albuquerque Center
Tue 06:15:28 PM 33.7361 -113.6211 293° West 452 520 36,000  Level Albuquerque Center
Tue 06:16:30 PM 33.7853 -113.7611 293° West 453 521 36,000  Level Albuquerque Center
Tue 06:17:31 PM 33.8447 -113.9283 293° West 453 521 36,000  Level Albuquerque Center
Tue 06:18:30 PM 33.8850 -114.0511 292° West 453 521 36,000 -50 Level Los Angeles Center
Tue 06:19:32 PM 33.9325 -114.1886 293° West 452 520 35,900 -49 Descending Los Angeles Center
Tue 06:20:33 PM 33.9814 -114.3294 293° West 452 520 35,900 -244 Level Los Angeles Center
Tue 06:21:35 PM 34.0319 -114.5008 290° West 452 520 35,400 -823 Descending Los Angeles Center
Tue 06:22:37 PM 34.0386 -114.6436 273° West 434 499 34,200 -726 Descending Los Angeles Center
Tue 06:23:39 PM 34.0511 -114.7894 276° West 434 499 33,900 -97 Descending Los Angeles Center
Tue 06:24:41 PM 34.0606 -114.9372 274° West 437 503 34,000 48 Climbing Los Angeles Center
Tue 06:25:43 PM 34.0697 -115.0819 274° West 436 502 34,000  Level Los Angeles Center
Tue 06:26:45 PM 34.0792 -115.2300 274° West 439 505 34,000 -49 Level Los Angeles Center
Tue 06:27:46 PM 34.0906 -115.4050 275° West 439 505 33,900  Descending Los Angeles Center
Tue 06:28:48 PM 34.0992 -115.5508 274° West 439 505 34,000  Climbing Los Angeles Center
Tue 06:29:50 PM 34.1086 -115.6967 275° West 439 505 33,900  Descending Los Angeles Center
Tue 06:30:52 PM 34.1019 -115.8383 267° West 437 503 34,000 -48 Climbing Los Angeles Center
Tue 06:31:54 PM 34.0817 -115.9794 260° West 433 498 33,800 -677 Descending Los Angeles Center
Tue 06:32:56 PM 34.0625 -116.1142 260° West 423 487 32,600 -1,790 Descending Los Angeles Center
Tue 06:33:58 PM 34.0392 -116.2686 260° West 410 472 30,100 -2,081 Descending Los Angeles Center
Tue 06:35:00 PM 34.0206 -116.3867 259° West 384 442 28,300 -1,742 Descending Los Angeles Center
Tue 06:36:02 PM 34.0039 -116.5067 261° West 373 429 26,500 -1,839 Descending Los Angeles Center
Tue 06:37:04 PM 33.9947 -116.6261 265° West 365 420 24,500 -1,887 Descending Los Angeles Center
Tue 06:38:06 PM 33.9833 -116.7569 264° West 362 417 22,600 -1,839 Descending Los Angeles Center
Tue 06:39:08 PM 33.9728 -116.8797 264° West 351 404 20,700 -1,887 Descending Los Angeles Center
Tue 06:40:10 PM 33.9631 -117.0067 265° West 357 411 18,700 -2,000 Descending Los Angeles Center
Tue 06:41:02 PM 33.9500 -117.1167 262° West 342 394 16,900 -1,393 Descending Southern California TRACON
Tue 06:42:02 PM 33.9500 -117.2167 270° West 301 346 16,100 -750 Descending Southern California TRACON
Tue 06:43:02 PM 33.9333 -117.3000 256° West 294 338 15,400 -950 Descending Southern California TRACON
Tue 06:44:02 PM 33.9500 -117.4000 281° West 296 341 14,200 -1,250 Descending Southern California TRACON
Tue 06:45:02 PM 33.9667 -117.5000 281° West 284 327 12,900 -1,200 Descending Southern California TRACON
Tue 06:46:02 PM 34.0000 -117.5667 301° West 277 319 11,800 -1,200 Descending Southern California TRACON
Tue 06:47:02 PM 34.0167 -117.6500 284° West 251 289 10,500 -1,150 Descending Southern California TRACON
Tue 06:48:02 PM 34.0000 -117.7333 256° West 231 266 9,500 -1,050 Descending Southern California TRACON
Tue 06:49:02 PM 34.0000 -117.8167 270° West 231 266 8,400 -1,150 Descending Southern California TRACON
Tue 06:50:02 PM 33.9833 -117.8833 253° West 218 251 7,200 -1,100 Descending Southern California TRACON
Tue 06:51:02 PM 33.9833 -117.9500 270° West 200 230 6,200 -950 Descending Southern California TRACON
Tue 06:52:02 PM 33.9667 -118.0167 253° West 198 228 5,300 -650 Descending Southern California TRACON
Tue 06:53:02 PM 33.9667 -118.0833 270° West 195 224 4,900 -750 Descending Southern California TRACON
Tue 06:54:02 PM 33.9667 -118.1500 270° West 197 227 3,800 -928 Descending Southern California TRACON
Tue 06:54:39 PM 33.9583 -118.1828 253° West 196 226 3,400 -909 Descending Los Angeles Center
Tue 06:55:41 PM 33.9519 -118.2481 263° West 196 226 2,300 -1,016 Descending Los Angeles Center
Tue 06:56:43 PM 33.9456 -118.3169 264° West 183 211 1,300 -823 Descending Los Angeles Center
Tue 06:57:45 PM 33.9403 -118.3628 262° West 156 180 600 -532 Descending Los Angeles Center
Tue 06:58:47 PM 33.9500 -118.4039 286° West 151 174 200 -387 Descending Los Angeles Center
Tue 07:00:00 PM 33.9425 -118.4081 270° West  Level Estimated

Login

Don't have an account? Register now (free) for customized features, flight alerts, and more!